This is the latest recevied weather packets stored in our database for station/object IU2RPR-3. If no packets are shown the sender has not sent any weather packets the latest 10 day(s).
| Time | Temp. | Humidity | Pressure | Rain* | Wind** | Luminosity | Snow |
|---|---|---|---|---|---|---|---|
| 1788505583 | 23.33° C | 60% | 1018.8 hPa | - | - | - | - |
| 1788504382 | 22.78° C | 63% | 1018.8 hPa | - | - | - | - |
| 1788503181 | 22.22° C | 65% | 1018.7 hPa | - | - | - | - |
| 1788501979 | 21.67° C | 65% | 1018.8 hPa | - | - | - | - |
| 1788500778 | 21.11° C | 66% | 1018.9 hPa | - | - | - | - |
| 1788499577 | 20.56° C | 66% | 1018.9 hPa | - | - | - | - |
| 1788498376 | 20.56° C | 68% | 1018.8 hPa | - | - | - | - |
| 1788497174 | 20.56° C | 68% | 1018.7 hPa | - | - | - | - |
| 1788495973 | 20.56° C | 70% | 1018.7 hPa | - | - | - | - |
| 1788494772 | 20.56° C | 71% | 1018.5 hPa | - | - | - | - |
| 1788493570 | 21.11° C | 69% | 1018.5 hPa | - | - | - | - |
| 1788492369 | 21.11° C | 68% | 1018.4 hPa | - | - | - | - |
| 1788491168 | 21.11° C | 67% | 1018.3 hPa | - | - | - | - |
| 1788488765 | 21.67° C | 67% | 1018 hPa | - | - | - | - |
| 1788485166 | 22.22° C | 64% | 1017.9 hPa | - | - | - | - |
| 1788481558 | 22.78° C | 61% | 1017.9 hPa | - | - | - | - |
| 1788475552 | 23.33° C | 60% | 1018.1 hPa | - | - | - | - |
| 1788471948 | 23.89° C | 60% | 1018.1 hPa | - | - | - | - |
| 1788470746 | 24.44° C | 59% | 1018 hPa | - | - | - | - |
| 1788468344 | 25° C | 58% | 1017.8 hPa | - | - | - | - |
| 1788467143 | 25° C | 58% | 1017.7 hPa | - | - | - | - |
| 1788465941 | 25° C | 56% | 1017.6 hPa | - | - | - | - |
| 1788444764 | 32.78° C | 38% | 1016.6 hPa | - | - | - | - |
| 1788443563 | 32.78° C | 40% | 1016.9 hPa | - | - | - | - |
| 1788438758 | 30.56° C | 40% | 1017.6 hPa | - | - | - | - |
* Rain since midnight (hover to see other rain measurements)
** Current wind speed in m/s (hover to see current wind gust speed)